Time;durP1;ratioP1;P1;durP2;ratioP2;P2;SDS_P1;SDS_P2;PMS_P1;PMS_P2;Temp;Humidity;BMP_temperature;BMP_pressure;BME280_temperature;BME280_humidity;BME280_pressure;Samples;Min_cycle;Max_cycle;Signal;HPM_P1;HPM_P2
2022/09/08 00:00:31;;;;;;;5.88;5.38;;;23.10;99.90;;;;;;6260940;27;84110;-66
2022/09/08 00:03:33;;;;;;;6.30;5.80;;;23.10;99.90;;;;;;6279481;27;85104;-66
2022/09/08 00:06:35;;;;;;;6.32;5.72;;;23.10;99.90;;;;;;6286287;27;83030;-66
2022/09/08 00:09:38;;;;;;;6.70;6.10;;;23.10;99.90;;;;;;6272992;27;84454;-66
2022/09/08 00:12:42;;;;;;;6.05;5.55;;;23.10;99.90;;;;;;6284837;27;83970;-66
2022/09/08 00:15:44;;;;;;;6.30;5.80;;;23.10;99.90;;;;;;6272148;27;83748;-66
2022/09/08 00:18:47;;;;;;;6.22;5.72;;;23.20;99.90;;;;;;6264908;27;83961;-66
2022/09/08 00:21:49;;;;;;;6.05;5.55;;;23.10;99.90;;;;;;6281281;27;84006;-66
2022/09/08 00:24:52;;;;;;;6.43;5.93;;;23.10;99.90;;;;;;6266928;27;83253;-66
2022/09/08 00:27:54;;;;;;;6.53;6.00;;;23.10;99.90;;;;;;6273489;27;84465;-66
2022/09/08 00:30:56;;;;;;;6.50;5.95;;;23.10;99.90;;;;;;6261982;27;83994;-66
2022/09/08 00:33:58;;;;;;;6.30;5.72;;;23.10;99.90;;;;;;6261979;27;85041;-66
2022/09/08 00:37:00;;;;;;;5.88;5.38;;;23.10;99.90;;;;;;6274442;27;85325;-66
2022/09/08 00:40:04;;;;;;;6.10;5.60;;;23.10;99.90;;;;;;6270432;27;83989;-66
2022/09/08 00:43:06;;;;;;;5.82;5.32;;;23.10;99.90;;;;;;6284773;27;84300;-66
2022/09/08 00:46:21;;;;;;;6.28;5.78;;;23.10;99.90;;;;;;6273532;27;83142;-66
2022/09/08 00:49:23;;;;;;;6.22;5.72;;;23.10;99.90;;;;;;6272554;27;83951;-66
2022/09/08 00:52:29;;;;;;;6.82;6.20;;;23.10;99.90;;;;;;6284052;27;82920;-66
2022/09/08 00:55:35;;;;;;;6.65;6.15;;;23.10;99.90;;;;;;6277637;27;83232;-66
2022/09/08 00:58:39;;;;;;;6.53;5.90;;;23.10;99.90;;;;;;6275196;27;82903;-66
2022/09/08 01:01:41;;;;;;;6.20;5.70;;;23.10;99.90;;;;;;6276649;27;84392;-66
2022/09/08 01:04:43;;;;;;;6.57;5.65;;;23.10;99.90;;;;;;6276454;27;85138;-66
2022/09/08 01:14:46;;;;;;;7.38;6.30;;;23.10;99.90;;;;;;6272972;27;82794;-66
2022/09/08 01:17:51;;;;;;;6.25;5.75;;;23.10;99.90;;;;;;6272513;27;82982;-66
2022/09/08 01:21:01;;;;;;;6.63;6.03;;;23.10;99.90;;;;;;6269099;27;83819;-66
2022/09/08 01:24:23;;;;;;;6.03;5.53;;;23.10;99.90;;;;;;6281691;27;82921;-66
2022/09/08 01:27:30;;;;;;;6.30;5.80;;;23.10;99.90;;;;;;6277092;27;82252;-66
2022/09/08 01:30:33;;;;;;;6.45;5.85;;;23.10;99.90;;;;;;6282319;27;84063;-66
2022/09/08 01:33:35;;;;;;;6.95;6.35;;;23.10;99.90;;;;;;6275984;27;84061;-66
2022/09/08 01:36:37;;;;;;;5.97;5.47;;;23.10;99.90;;;;;;6275262;27;85020;-66
2022/09/08 01:39:40;;;;;;;6.07;5.57;;;23.10;99.90;;;;;;6279308;27;84138;-66
2022/09/08 01:42:43;;;;;;;6.28;5.68;;;23.10;99.90;;;;;;6278075;27;84122;-66
2022/09/08 01:45:45;;;;;;;6.10;5.60;;;23.10;99.90;;;;;;6282767;27;84105;-66
2022/09/08 01:48:47;;;;;;;6.03;5.53;;;23.10;99.90;;;;;;6260233;27;84498;-66
2022/09/08 01:51:49;;;;;;;6.20;5.70;;;23.10;99.90;;;;;;6271464;27;84036;-66
2022/09/08 01:54:51;;;;;;;6.25;5.75;;;23.10;99.90;;;;;;6280776;27;89323;-66
2022/09/08 01:57:54;;;;;;;6.70;6.10;;;23.10;99.90;;;;;;6270032;27;88480;-66
2022/09/08 02:00:58;;;;;;;6.45;5.85;;;23.10;99.90;;;;;;6271193;27;89085;-65
2022/09/08 02:04:00;;;;;;;6.30;5.70;;;23.10;99.90;;;;;;6270508;27;88949;-66
2022/09/08 02:07:02;;;;;;;6.20;5.70;;;23.10;99.90;;;;;;6260590;27;89950;-65
2022/09/08 02:10:05;;;;;;;6.90;6.20;;;23.10;99.90;;;;;;6279002;27;89420;-66
2022/09/08 02:13:08;;;;;;;6.38;5.78;;;23.10;99.90;;;;;;6280691;27;89026;-66
2022/09/08 02:16:11;;;;;;;6.20;5.70;;;23.10;99.90;;;;;;6256496;27;89090;-65
2022/09/08 02:19:13;;;;;;;6.10;5.60;;;23.10;99.90;;;;;;6260352;27;89225;-66
2022/09/08 02:22:15;;;;;;;5.97;5.50;;;23.10;99.90;;;;;;6269095;27;89051;-66
2022/09/08 02:25:17;;;;;;;6.35;5.75;;;23.10;99.90;;;;;;6276089;27;89499;-66
2022/09/08 02:28:21;;;;;;;5.80;5.30;;;23.10;99.90;;;;;;6267340;27;88441;-66
2022/09/08 02:31:24;;;;;;;6.25;5.75;;;23.10;99.90;;;;;;6265996;27;89122;-66
2022/09/08 02:34:26;;;;;;;6.18;5.65;;;23.10;99.90;;;;;;6261024;27;89011;-66
2022/09/08 02:37:28;;;;;;;6.45;5.95;;;23.10;99.90;;;;;;6275834;27;90453;-66
2022/09/08 02:40:30;;;;;;;6.45;5.85;;;23.10;99.90;;;;;;6255082;27;89071;-66
2022/09/08 02:43:34;;;;;;;6.40;5.82;;;23.10;99.90;;;;;;6269245;27;88978;-66
2022/09/08 02:46:36;;;;;;;6.07;5.57;;;23.10;99.90;;;;;;6272857;27;88371;-66
2022/09/08 02:49:38;;;;;;;6.43;5.90;;;23.10;99.90;;;;;;6279478;27;87946;-66
2022/09/08 02:52:40;;;;;;;6.70;6.13;;;23.10;99.90;;;;;;6273710;27;89059;-66
2022/09/08 02:55:43;;;;;;;6.10;5.70;;;23.10;99.90;;;;;;6270759;27;89373;-66
2022/09/08 02:58:46;;;;;;;6.22;5.68;;;23.10;99.90;;;;;;6270487;27;88401;-66
2022/09/08 03:01:48;;;;;;;6.63;6.05;;;23.10;99.90;;;;;;6272210;27;89073;-65
2022/09/08 03:04:50;;;;;;;6.55;5.95;;;23.10;99.90;;;;;;6272636;27;89410;-66
2022/09/08 03:07:53;;;;;;;6.30;5.80;;;23.10;99.90;;;;;;6271416;27;90007;-66
2022/09/08 03:10:55;;;;;;;6.55;6.00;;;23.10;99.90;;;;;;6274607;27;89127;-66
2022/09/08 03:13:59;;;;;;;6.07;5.60;;;23.10;99.90;;;;;;6274259;27;89475;-66
2022/09/08 03:17:01;;;;;;;5.90;5.40;;;23.10;99.90;;;;;;6274883;27;89292;-65
2022/09/08 03:20:03;;;;;;;6.43;5.93;;;23.00;99.90;;;;;;6283502;27;89069;-66
2022/09/08 03:23:05;;;;;;;6.45;5.85;;;23.10;99.90;;;;;;6268425;27;89074;-65
2022/09/08 03:26:12;;;;;;;6.85;6.25;;;23.10;99.90;;;;;;6271048;27;89043;-65
2022/09/08 03:29:15;;;;;;;6.22;5.72;;;23.10;99.90;;;;;;6260986;27;88428;-66
2022/09/08 03:32:17;;;;;;;6.65;6.05;;;23.10;99.90;;;;;;6271240;27;89208;-66
2022/09/08 03:35:19;;;;;;;6.47;5.97;;;23.10;99.90;;;;;;6272585;27;88854;-65
2022/09/08 03:38:21;;;;;;;6.40;5.82;;;23.10;99.90;;;;;;6259253;27;89289;-66
2022/09/08 03:41:23;;;;;;;6.60;6.00;;;23.10;99.90;;;;;;6270452;27;89433;-65
2022/09/08 03:44:27;;;;;;;6.40;5.82;;;23.10;99.90;;;;;;6281481;27;89049;-65
2022/09/08 03:47:29;;;;;;;6.18;5.57;;;23.10;99.90;;;;;;6282509;27;88995;-66
2022/09/08 03:50:32;;;;;;;6.57;5.97;;;23.00;99.90;;;;;;6282146;27;89133;-66
2022/09/08 03:53:34;;;;;;;6.63;6.03;;;23.10;99.90;;;;;;6272315;27;89400;-65
2022/09/08 03:56:36;;;;;;;6.80;6.20;;;23.10;99.90;;;;;;6277242;27;89389;-66
2022/09/08 03:59:39;;;;;;;6.53;5.93;;;23.10;99.90;;;;;;6260892;27;87198;-65
2022/09/08 04:02:41;;;;;;;6.25;5.72;;;23.10;99.90;;;;;;6280952;27;89470;-66
2022/09/08 04:05:43;;;;;;;5.70;5.30;;;23.10;99.90;;;;;;6269038;27;87969;-66
2022/09/08 04:08:46;;;;;;;6.20;5.65;;;23.10;99.90;;;;;;6259539;27;90013;-66
2022/09/08 04:11:49;;;;;;;7.10;6.40;;;23.10;99.90;;;;;;6269643;27;89113;-66
2022/09/08 04:14:52;;;;;;;6.18;5.68;;;23.10;99.90;;;;;;6271467;27;89312;-66
2022/09/08 04:17:54;;;;;;;6.40;5.80;;;23.10;99.90;;;;;;6277894;27;89062;-65
2022/09/08 04:20:57;;;;;;;7.00;6.40;;;23.00;99.90;;;;;;6270550;27;89014;-66
2022/09/08 04:24:00;;;;;;;6.47;5.97;;;23.10;99.90;;;;;;6263832;27;89029;-66
2022/09/08 04:27:02;;;;;;;6.38;5.78;;;23.10;99.90;;;;;;6260097;27;88966;-66
2022/09/08 04:30:07;;;;;;;6.20;5.70;;;23.10;99.90;;;;;;6281812;27;88896;-65
2022/09/08 04:33:09;;;;;;;6.50;6.00;;;23.10;99.90;;;;;;6269069;27;89123;-66
2022/09/08 04:36:13;;;;;;;6.28;5.78;;;23.10;99.90;;;;;;6258103;27;89099;-66
2022/09/08 04:39:16;;;;;;;6.18;5.68;;;23.10;99.90;;;;;;6256370;27;88943;-66
2022/09/08 04:42:21;;;;;;;6.78;6.13;;;23.10;99.90;;;;;;6275585;27;89206;-65
2022/09/08 04:45:24;;;;;;;6.90;6.20;;;23.10;99.90;;;;;;6267700;27;89212;-65
2022/09/08 04:48:26;;;;;;;6.25;5.78;;;23.00;99.90;;;;;;6283099;27;89735;-66
2022/09/08 04:51:30;;;;;;;6.75;6.15;;;23.00;99.90;;;;;;6271797;27;89114;-65
2022/09/08 04:54:32;;;;;;;7.25;6.65;;;23.10;99.90;;;;;;6269199;27;89437;-65
2022/09/08 05:01:28;;;;;;;7.38;6.68;;;23.00;99.90;;;;;;6265239;27;86453;-65
2022/09/08 05:04:30;;;;;;;6.97;6.38;;;23.10;99.90;;;;;;6264524;27;88519;-65
2022/09/08 05:07:32;;;;;;;7.28;6.57;;;23.10;99.90;;;;;;6265774;27;89942;-66
2022/09/08 05:10:34;;;;;;;7.22;6.53;;;23.10;99.90;;;;;;6265188;27;89714;-65
2022/09/08 05:13:36;;;;;;;7.97;7.28;;;23.10;99.90;;;;;;6263152;27;89062;-66
2022/09/08 05:16:40;;;;;;;7.45;6.82;;;23.10;99.90;;;;;;6264580;27;89618;-65
2022/09/08 05:19:41;;;;;;;8.00;7.20;;;23.10;99.90;;;;;;6258386;27;89085;-66
2022/09/08 05:22:43;;;;;;;8.27;7.47;;;23.10;99.90;;;;;;6262821;27;87934;-65
2022/09/08 05:25:46;;;;;;;7.65;6.95;;;23.10;99.90;;;;;;6262728;27;89064;-65
2022/09/08 05:28:48;;;;;;;8.65;7.65;;;23.10;99.90;;;;;;6260524;27;89474;-65
2022/09/08 05:31:52;;;;;;;8.02;7.32;;;23.10;99.90;;;;;;6257582;27;88301;-66
2022/09/08 05:34:54;;;;;;;8.23;7.53;;;23.10;99.90;;;;;;6269330;27;89143;-65
2022/09/08 05:37:56;;;;;;;7.78;7.07;;;23.10;99.90;;;;;;6264293;27;89156;-65
2022/09/08 05:41:00;;;;;;;8.02;7.20;;;23.10;99.90;;;;;;6266693;27;90043;-65
2022/09/08 05:44:03;;;;;;;8.68;7.88;;;23.10;99.90;;;;;;6278385;27;89178;-65
2022/09/08 05:47:09;;;;;;;8.00;7.30;;;23.10;99.90;;;;;;6278752;27;89082;-65
2022/09/08 05:50:11;;;;;;;8.38;7.40;;;23.10;99.90;;;;;;6274353;27;88875;-66
2022/09/08 05:53:14;;;;;;;8.18;7.43;;;23.10;99.90;;;;;;6267870;27;88948;-66
2022/09/08 05:56:18;;;;;;;8.38;7.68;;;23.10;99.90;;;;;;6280048;27;89382;-65
2022/09/08 05:59:20;;;;;;;8.27;7.40;;;23.10;99.90;;;;;;6256663;27;89059;-66
2022/09/08 06:02:24;;;;;;;8.25;7.53;;;23.10;99.90;;;;;;6264347;27;88347;-65
2022/09/08 06:05:26;;;;;;;7.75;6.95;;;23.10;99.90;;;;;;6261694;27;88826;-65
2022/09/08 06:08:28;;;;;;;7.72;7.03;;;23.10;99.90;;;;;;6267385;27;89056;-65
2022/09/08 06:11:32;;;;;;;7.45;6.72;;;23.10;99.90;;;;;;6255210;27;90251;-65
2022/09/08 06:14:33;;;;;;;7.20;6.60;;;23.10;99.90;;;;;;6258850;27;89405;-65
2022/09/08 06:17:37;;;;;;;7.68;6.97;;;23.10;99.90;;;;;;6264635;27;89140;-65
2022/09/08 06:20:39;;;;;;;7.07;6.47;;;23.10;99.90;;;;;;6260444;27;89106;-63
2022/09/08 06:23:41;;;;;;;7.20;6.60;;;23.10;99.90;;;;;;6262158;27;89330;-63
2022/09/08 06:26:54;;;;;;;7.07;6.47;;;23.10;99.90;;;;;;6261199;27;89218;-63
2022/09/08 06:30:03;;;;;;;7.30;6.57;;;23.10;99.90;;;;;;6264086;27;89050;-63
2022/09/08 06:33:11;;;;;;;6.88;6.28;;;23.10;99.90;;;;;;6268945;27;88220;-64
2022/09/08 06:36:18;;;;;;;7.05;6.40;;;23.10;99.90;;;;;;6273897;27;87966;-63
2022/09/08 06:39:25;;;;;;;6.80;6.10;;;23.10;99.90;;;;;;6261747;27;89062;-64
2022/09/08 06:42:40;;;;;;;5.93;5.30;;;23.10;99.90;;;;;;6260759;27;90135;-64
2022/09/08 06:45:45;;;;;;;6.20;5.60;;;23.10;99.90;;;;;;6255566;27;89975;-64
2022/09/08 06:48:49;;;;;;;5.90;5.30;;;23.00;99.90;;;;;;6261263;27;89249;-64
2022/09/08 06:51:59;;;;;;;5.80;5.30;;;23.10;99.90;;;;;;6262693;27;89056;-63
2022/09/08 06:55:09;;;;;;;5.45;4.97;;;23.10;99.90;;;;;;6272299;27;88982;-64
2022/09/08 06:58:21;;;;;;;5.90;5.25;;;23.10;99.90;;;;;;6265301;27;89013;-64
2022/09/08 07:01:25;;;;;;;5.57;5.07;;;23.10;99.90;;;;;;6273416;27;89102;-63
2022/09/08 07:04:42;;;;;;;5.68;5.05;;;23.10;99.90;;;;;;6269530;27;88793;-63
2022/09/08 07:07:51;;;;;;;4.82;4.40;;;23.10;99.90;;;;;;6272230;27;89318;-64
2022/09/08 07:10:58;;;;;;;5.53;5.00;;;23.10;99.90;;;;;;6268735;27;89197;-64
2022/09/08 07:14:09;;;;;;;5.63;4.78;;;23.10;99.90;;;;;;6257830;27;90038;-64
2022/09/08 07:17:21;;;;;;;5.47;4.97;;;23.10;99.90;;;;;;6269644;27;89188;-64
2022/09/08 07:20:28;;;;;;;5.18;4.78;;;23.10;99.90;;;;;;6274369;27;89372;-64
2022/09/08 07:23:37;;;;;;;4.75;4.35;;;23.10;99.90;;;;;;6268327;27;89049;-64
2022/09/08 07:26:46;;;;;;;4.95;4.50;;;23.00;99.90;;;;;;6267555;27;89333;-64
2022/09/08 07:29:52;;;;;;;7.65;4.88;;;23.10;99.90;;;;;;6269536;27;89018;-63
2022/09/08 07:32:59;;;;;;;5.57;4.93;;;23.10;99.90;;;;;;6263128;27;89058;-64
2022/09/08 07:36:12;;;;;;;5.55;5.05;;;23.10;99.90;;;;;;6262168;27;87197;-64
2022/09/08 07:39:21;;;;;;;5.28;4.78;;;23.10;99.90;;;;;;6267534;27;89193;-64
2022/09/08 07:42:23;;;;;;;5.57;5.00;;;23.10;99.90;;;;;;6260366;27;89144;-64
2022/09/08 07:45:33;;;;;;;5.68;5.00;;;23.10;99.90;;;;;;6265188;27;90007;-63
2022/09/08 07:48:39;;;;;;;7.03;4.97;;;23.00;99.90;;;;;;6258387;27;89195;-64
2022/09/08 07:51:53;;;;;;;8.30;5.03;;;23.00;99.90;;;;;;6258543;27;89565;-64
2022/09/08 07:55:10;;;;;;;4.85;4.35;;;23.10;99.90;;;;;;6278439;27;89043;-64
2022/09/08 07:58:18;;;;;;;7.10;4.65;;;23.10;99.90;;;;;;6271376;27;89129;-64
2022/09/08 08:01:33;;;;;;;5.50;4.70;;;23.00;99.90;;;;;;6262911;27;88915;-64
2022/09/08 08:04:47;;;;;;;4.43;4.03;;;23.10;99.90;;;;;;6259087;27;88014;-64
2022/09/08 08:08:01;;;;;;;4.60;4.20;;;23.10;99.90;;;;;;6259821;27;88300;-64
2022/09/08 08:11:10;;;;;;;4.43;4.03;;;23.10;99.90;;;;;;6259009;27;89367;-64
2022/09/08 08:14:22;;;;;;;5.15;4.32;;;23.00;99.90;;;;;;6259069;27;90916;-64
2022/09/08 08:17:34;;;;;;;4.60;4.20;;;23.00;99.90;;;;;;6267946;27;89976;-65
2022/09/08 08:20:45;;;;;;;4.80;4.30;;;23.10;99.90;;;;;;6272459;27;89135;-65
2022/09/08 08:24:02;;;;;;;4.43;3.90;;;23.10;99.90;;;;;;6275576;27;88848;-65
2022/09/08 08:27:16;;;;;;;4.20;3.80;;;23.10;99.90;;;;;;6257776;27;88989;-65
2022/09/08 08:30:19;;;;;;;3.97;3.60;;;23.10;99.90;;;;;;6269228;27;89065;-64
2022/09/08 08:33:27;;;;;;;4.00;3.65;;;23.10;99.90;;;;;;6263720;27;89059;-65
2022/09/08 08:36:33;;;;;;;3.67;3.38;;;23.10;99.90;;;;;;6268027;27;91364;-65
2022/09/08 08:39:39;;;;;;;5.18;3.88;;;23.10;99.90;;;;;;6280679;27;88346;-65
2022/09/08 08:42:58;;;;;;;3.78;3.35;;;23.10;99.90;;;;;;6280686;27;87962;-64
2022/09/08 08:46:16;;;;;;;4.80;3.17;;;23.10;99.90;;;;;;6273490;27;89072;-65
2022/09/08 08:49:39;;;;;;;3.50;3.20;;;23.10;99.90;;;;;;6278810;27;90204;-65
2022/09/08 08:53:12;;;;;;;3.13;2.83;;;23.10;99.90;;;;;;6273134;27;88934;-65
2022/09/08 08:56:23;;;;;;;3.10;2.80;;;23.10;99.90;;;;;;6280869;27;89418;-65
2022/09/08 08:59:57;;;;;;;3.08;2.85;;;23.10;99.90;;;;;;6261494;27;89210;-65
2022/09/08 09:03:23;;;;;;;3.17;2.88;;;23.10;99.90;;;;;;6257474;27;89071;-64
2022/09/08 09:07:03;;;;;;;3.10;2.80;;;23.10;99.90;;;;;;6271037;27;89537;-65
2022/09/08 09:10:15;;;;;;;2.80;2.60;;;23.10;99.90;;;;;;6261741;27;89315;-65
2022/09/08 09:13:56;;;;;;;3.13;2.50;;;23.10;99.90;;;;;;6264787;27;88725;-65
2022/09/08 09:17:28;;;;;;;3.67;2.30;;;23.10;99.90;;;;;;6246846;27;89237;-64
2022/09/08 09:20:56;;;;;;;3.17;2.47;;;23.10;99.90;;;;;;6261298;27;89121;-65
2022/09/08 09:24:01;;;;;;;3.00;2.50;;;23.10;99.90;;;;;;6273098;27;88931;-64
2022/09/08 09:27:14;;;;;;;2.30;2.10;;;23.10;99.90;;;;;;6257068;27;89382;-64
2022/09/08 09:30:22;;;;;;;2.22;2.00;;;23.10;99.90;;;;;;6274697;27;89634;-65
2022/09/08 09:33:56;;;;;;;2.30;2.10;;;23.10;99.90;;;;;;6263949;27;89322;-65
2022/09/08 09:37:21;;;;;;;3.40;2.03;;;23.10;99.90;;;;;;6256954;27;89402;-64
2022/09/08 09:40:35;;;;;;;2.08;1.92;;;23.10;99.90;;;;;;6265450;27;89087;-65
2022/09/08 09:44:10;;;;;;;3.33;2.28;;;23.10;99.90;;;;;;6272038;27;89179;-64
2022/09/08 09:47:53;;;;;;;2.17;1.98;;;23.10;99.90;;;;;;6269777;27;88343;-64
2022/09/08 09:51:25;;;;;;;1.90;1.80;;;23.10;99.90;;;;;;6259538;27;89158;-65
2022/09/08 09:55:00;;;;;;;2.00;1.80;;;23.10;99.90;;;;;;6269082;27;89380;-65
2022/09/08 09:58:48;;;;;;;3.53;1.77;;;23.10;99.90;;;;;;6268827;27;90052;-65
2022/09/08 10:02:06;;;;;;;1.60;1.50;;;23.10;99.90;;;;;;6267017;27;88224;-64
2022/09/08 10:05:41;;;;;;;1.60;1.50;;;23.10;99.90;;;;;;6264168;27;88915;-64
2022/09/08 10:09:48;;;;;;;2.60;1.90;;;23.10;99.90;;;;;;6225674;27;89055;-64
2022/09/08 10:13:27;;;;;;;2.15;1.70;;;23.10;99.90;;;;;;6265798;27;89073;-65
2022/09/08 10:17:08;;;;;;;54.58;49.08;;;23.10;99.90;;;;;;6255348;27;89338;-65
2022/09/08 10:20:42;;;;;;;1999.90;999.90;;;23.20;99.90;;;;;;6232920;27;89037;-66
2022/09/08 10:24:25;;;;;;;670.65;550.08;;;23.30;99.90;;;;;;6271733;27;88250;-64
2022/09/08 10:27:57;;;;;;;172.00;128.15;;;23.50;99.90;;;;;;6257233;27;89580;-65
2022/09/08 10:31:17;;;;;;;109.07;83.90;;;23.80;99.90;;;;;;6267242;27;89159;-65
2022/09/08 10:34:38;;;;;;;1999.90;999.90;;;24.10;99.90;;;;;;6267191;27;91718;-65
2022/09/08 10:38:01;;;;;;;1501.32;836.20;;;24.30;99.90;;;;;;6266752;27;89169;-64
2022/09/08 10:41:37;;;;;;;569.50;347.80;;;24.30;99.90;;;;;;6268138;27;89091;-64
2022/09/08 10:44:51;;;;;;;285.30;154.77;;;24.40;99.90;;;;;;6204765;27;89135;-63
2022/09/08 10:48:36;;;;;;;158.55;93.53;;;24.30;99.90;;;;;;6266116;27;88939;-63
2022/09/08 10:52:14;;;;;;;104.00;59.10;;;24.30;99.90;;;;;;6271733;27;89369;-64
2022/09/08 10:55:54;;;;;;;96.90;52.55;;;24.10;99.90;;;;;;6248165;27;87950;-64
2022/09/08 10:59:37;;;;;;;60.92;37.28;;;24.00;99.90;;;;;;6263344;27;88316;-64
2022/09/08 11:03:07;;;;;;;50.75;30.33;;;23.90;99.90;;;;;;6273266;27;89063;-64
2022/09/08 11:06:18;;;;;;;45.05;25.20;;;23.90;99.90;;;;;;6270132;27;89274;-64
2022/09/08 11:09:38;;;;;;;41.42;25.35;;;23.80;99.90;;;;;;6259324;27;90320;-65
2022/09/08 11:12:52;;;;;;;31.35;19.25;;;23.70;99.90;;;;;;6268420;27;89110;-64
2022/09/08 11:16:19;;;;;;;28.48;17.95;;;23.70;99.90;;;;;;6259908;27;89259;-65
2022/09/08 11:19:40;;;;;;;30.20;17.08;;;23.60;99.90;;;;;;6272684;27;88187;-65
2022/09/08 11:22:59;;;;;;;30.70;15.93;;;23.60;99.90;;;;;;6265381;27;89154;-64
2022/09/08 11:26:21;;;;;;;33.85;15.00;;;23.60;99.90;;;;;;6270368;27;89230;-65
2022/09/08 11:29:33;;;;;;;26.77;13.05;;;23.50;99.90;;;;;;6268061;27;89350;-64
2022/09/08 11:32:39;;;;;;;27.33;13.05;;;23.50;99.90;;;;;;6259332;27;89228;-65
2022/09/08 11:36:02;;;;;;;19.60;10.80;;;23.50;99.90;;;;;;6270063;27;89262;-64
2022/09/08 11:39:11;;;;;;;19.52;9.40;;;23.50;99.90;;;;;;6278712;27;89143;-65
2022/09/08 11:42:34;;;;;;;17.45;8.50;;;23.50;99.90;;;;;;6270947;27;90085;-65
2022/09/08 11:45:49;;;;;;;15.45;7.78;;;23.40;99.90;;;;;;6264188;27;89082;-64
2022/09/08 11:49:24;;;;;;;23.05;9.25;;;23.40;99.90;;;;;;6270334;27;89065;-65
2022/09/08 11:52:44;;;;;;;29.40;10.50;;;23.40;99.90;;;;;;6267096;27;89078;-64
2022/09/08 11:56:04;;;;;;;39.40;13.55;;;23.30;99.90;;;;;;6267642;27;89100;-65
2022/09/08 11:59:20;;;;;;;29.33;11.75;;;23.30;99.90;;;;;;6268245;27;87577;-65
2022/09/08 12:02:50;;;;;;;26.35;10.70;;;23.30;99.90;;;;;;6270467;27;88843;-65
2022/09/08 12:06:14;;;;;;;18.55;7.75;;;23.30;99.90;;;;;;6271249;27;87136;-64
2022/09/08 12:09:36;;;;;;;15.20;6.30;;;23.30;99.90;;;;;;6269868;27;89178;-64
2022/09/08 12:12:57;;;;;;;15.80;6.55;;;23.30;99.90;;;;;;6258245;27;89096;-64
2022/09/08 12:16:33;;;;;;;12.80;5.43;;;23.30;99.90;;;;;;6256985;27;90037;-64
2022/09/08 12:19:49;;;;;;;10.95;5.60;;;23.30;99.90;;;;;;6261110;27;89007;-64
2022/09/08 12:23:14;;;;;;;9.45;5.00;;;23.30;99.90;;;;;;6280165;27;89539;-64
2022/09/08 12:26:40;;;;;;;9.53;5.13;;;23.30;99.90;;;;;;6282075;27;89056;-64
2022/09/08 12:30:05;;;;;;;7.55;4.18;;;23.30;99.90;;;;;;6277732;27;89392;-65
2022/09/08 12:33:45;;;;;;;4.95;2.70;;;23.30;99.90;;;;;;6270833;27;88412;-65
2022/09/08 12:36:49;;;;;;;6.47;4.15;;;23.30;99.90;;;;;;6261333;27;89069;-65
2022/09/08 12:40:20;;;;;;;7.38;4.28;;;23.20;99.90;;;;;;6270667;27;88253;-65
2022/09/08 12:43:24;;;;;;;4.47;2.47;;;23.20;99.90;;;;;;6272941;27;89210;-64
2022/09/08 12:46:55;;;;;;;4.75;3.03;;;23.20;99.90;;;;;;6258481;27;89075;-65
2022/09/08 12:50:15;;;;;;;5.38;2.72;;;23.20;99.90;;;;;;6254100;27;90021;-64
2022/09/08 12:53:55;;;;;;;3.55;2.35;;;23.20;99.90;;;;;;6262173;27;89642;-65
2022/09/08 12:57:23;;;;;;;3.58;2.20;;;23.10;99.90;;;;;;6266831;27;89228;-65
2022/09/08 13:00:33;;;;;;;3.08;2.03;;;23.20;99.90;;;;;;6270852;27;89064;-64
2022/09/08 13:03:36;;;;;;;3.35;1.75;;;23.10;99.90;;;;;;6264897;27;89078;-64
2022/09/08 13:06:59;;;;;;;4.70;3.63;;;23.10;99.90;;;;;;6279667;27;89156;-64
2022/09/08 13:10:16;;;;;;;2.47;1.77;;;23.10;99.90;;;;;;6265755;27;89301;-65
2022/09/08 13:13:33;;;;;;;2.63;1.50;;;23.10;99.90;;;;;;6268379;27;89482;-65
2022/09/08 13:16:49;;;;;;;1.85;1.50;;;23.10;99.90;;;;;;6265088;27;89232;-64
2022/09/08 13:20:16;;;;;;;2.33;2.00;;;23.10;99.90;;;;;;6264299;27;89188;-65
2022/09/08 13:23:39;;;;;;;3.33;2.50;;;23.10;99.90;;;;;;6256930;27;88940;-65
2022/09/08 13:26:53;;;;;;;2.35;1.67;;;23.10;99.90;;;;;;6271185;27;89303;-65
2022/09/08 13:30:05;;;;;;;1.48;1.33;;;23.10;99.90;;;;;;6280744;27;89347;-64
2022/09/08 13:33:39;;;;;;;3.17;1.30;;;23.10;99.90;;;;;;6262053;27;89460;-65
2022/09/08 13:37:03;;;;;;;4.40;2.67;;;23.10;99.90;;;;;;6255467;27;89006;-64
2022/09/08 13:40:29;;;;;;;2.38;1.52;;;23.10;99.90;;;;;;6269109;27;89137;-64
2022/09/08 13:44:04;;;;;;;2.78;1.52;;;23.10;99.90;;;;;;6268990;27;88261;-64
2022/09/08 13:47:33;;;;;;;1.70;1.30;;;23.10;99.90;;;;;;6268011;27;88265;-65
2022/09/08 13:51:15;;;;;;;2.58;1.85;;;23.10;99.90;;;;;;6264456;27;89121;-65
2022/09/08 13:54:45;;;;;;;3.45;1.85;;;23.10;99.90;;;;;;6221899;28;89073;-64
2022/09/08 13:58:31;;;;;;;2.10;1.73;;;23.10;99.90;;;;;;6258540;27;90037;-64
2022/09/08 14:01:43;;;;;;;2.45;1.58;;;23.10;99.90;;;;;;6253848;27;89048;-64
2022/09/08 14:04:48;;;;;;;2.25;1.45;;;23.10;99.90;;;;;;6267239;27;89877;-65
2022/09/08 14:07:59;;;;;;;2.35;1.27;;;23.10;99.90;;;;;;6265710;27;88289;-64
2022/09/08 14:11:20;;;;;;;1.48;1.35;;;23.10;99.90;;;;;;6277749;27;89082;-64
2022/09/08 14:15:02;;;;;;;1.80;1.30;;;23.10;99.90;;;;;;6270657;27;89107;-65
2022/09/08 14:18:20;;;;;;;1.55;1.10;;;23.00;99.90;;;;;;6270626;27;89298;-64
2022/09/08 14:21:29;;;;;;;1.58;1.25;;;23.00;99.90;;;;;;6265187;27;88352;-65
2022/09/08 14:24:47;;;;;;;1.67;1.17;;;23.00;99.90;;;;;;6255104;27;90473;-64
2022/09/08 14:28:13;;;;;;;2.05;1.20;;;23.00;99.90;;;;;;6260679;27;89410;-67
2022/09/08 14:31:28;;;;;;;1.38;1.10;;;23.00;99.90;;;;;;6276515;27;89997;-64
2022/09/08 14:34:53;;;;;;;1.30;1.20;;;23.00;99.90;;;;;;6267675;27;89251;-65
2022/09/08 14:38:12;;;;;;;2.22;1.25;;;23.00;99.90;;;;;;6255270;27;89123;-65
2022/09/08 14:41:32;;;;;;;1.77;1.20;;;23.00;99.90;;;;;;6261405;27;87965;-65
2022/09/08 14:44:53;;;;;;;2.10;1.20;;;23.00;99.90;;;;;;6276758;27;89173;-64
2022/09/08 14:48:11;;;;;;;1.48;1.13;;;22.90;99.90;;;;;;6258190;27;89467;-65
2022/09/08 14:51:25;;;;;;;2.97;1.17;;;23.00;99.90;;;;;;6265718;27;89157;-65
2022/09/08 14:54:44;;;;;;;2.22;1.40;;;23.00;99.90;;;;;;6272639;27;87293;-65
2022/09/08 14:57:49;;;;;;;1.38;0.90;;;22.90;99.90;;;;;;6276688;27;89127;-65
2022/09/08 15:00:55;;;;;;;2.85;1.60;;;22.90;99.90;;;;;;6266764;27;89063;-65
2022/09/08 15:04:02;;;;;;;1.10;1.00;;;23.00;99.90;;;;;;6256049;27;90045;-64
2022/09/08 15:07:18;;;;;;;1.88;1.00;;;23.00;99.90;;;;;;6264188;27;88996;-65
2022/09/08 15:10:33;;;;;;;1.25;1.10;;;23.00;99.90;;;;;;6264731;27;89040;-65
2022/09/08 15:13:38;;;;;;;1.25;1.10;;;22.90;99.90;;;;;;6274347;27;89063;-64
2022/09/08 15:16:52;;;;;;;1.50;1.27;;;23.00;99.90;;;;;;6265726;27;89213;-64
2022/09/08 15:20:01;;;;;;;2.78;1.92;;;22.90;99.90;;;;;;6262000;27;88846;-64
2022/09/08 15:23:21;;;;;;;1.90;1.00;;;23.00;99.90;;;;;;6261087;27;89477;-64
2022/09/08 15:26:40;;;;;;;2.25;1.95;;;23.00;99.90;;;;;;6258091;27;88656;-64
2022/09/08 15:29:55;;;;;;;1.15;0.90;;;23.00;99.90;;;;;;6264154;27;89306;-64
2022/09/08 15:33:10;;;;;;;2.45;1.00;;;22.90;99.90;;;;;;6266961;27;89258;-65
2022/09/08 15:36:16;;;;;;;2.17;1.15;;;23.00;99.90;;;;;;6261820;27;89825;-65
2022/09/08 15:39:24;;;;;;;1.52;1.00;;;23.00;99.90;;;;;;6260000;27;89082;-65
2022/09/08 15:42:40;;;;;;;3.95;1.02;;;22.90;99.90;;;;;;6263153;27;89000;-64
2022/09/08 15:46:02;;;;;;;3.97;1.10;;;23.00;99.90;;;;;;6270798;27;89078;-64
2022/09/08 15:49:17;;;;;;;1.60;1.10;;;23.00;99.90;;;;;;6260170;27;88897;-64
2022/09/08 15:53:00;;;;;;;1.98;1.10;;;22.90;99.90;;;;;;6263789;27;87665;-64
2022/09/08 15:56:26;;;;;;;1.35;1.00;;;22.90;99.90;;;;;;6251513;27;89134;-64
2022/09/08 15:59:44;;;;;;;1.65;1.40;;;23.00;99.90;;;;;;6259507;27;88613;-64
2022/09/08 16:02:59;;;;;;;1.52;1.05;;;22.90;99.90;;;;;;6266985;27;88275;-64
2022/09/08 16:06:09;;;;;;;1.08;0.95;;;23.00;99.90;;;;;;6268327;27;89002;-64
2022/09/08 16:09:15;;;;;;;1.80;1.10;;;23.00;99.90;;;;;;6258999;27;92484;-64
2022/09/08 16:12:20;;;;;;;1.25;0.90;;;22.90;99.90;;;;;;6270408;27;88981;-64
2022/09/08 16:15:33;;;;;;;1.10;0.90;;;23.00;99.90;;;;;;6282446;27;89370;-64
2022/09/08 16:18:43;;;;;;;0.95;0.77;;;22.90;99.90;;;;;;6258086;27;89178;-64
2022/09/08 16:21:58;;;;;;;2.33;1.10;;;22.90;99.90;;;;;;6274735;27;89255;-64
2022/09/08 16:25:03;;;;;;;2.05;1.23;;;22.90;99.90;;;;;;6263581;27;89349;-66
2022/09/08 16:28:06;;;;;;;1.27;1.00;;;22.90;99.90;;;;;;6274955;27;87931;-66
2022/09/08 16:31:18;;;;;;;2.72;1.02;;;22.90;99.90;;;;;;6271526;27;87380;-65
2022/09/08 16:34:32;;;;;;;2.00;1.80;;;22.90;99.90;;;;;;6266825;27;89062;-65
2022/09/08 16:37:44;;;;;;;2.60;1.33;;;22.90;99.90;;;;;;6262148;27;89171;-65
2022/09/08 16:40:52;;;;;;;1.95;1.33;;;22.90;99.90;;;;;;6265481;27;89782;-66
2022/09/08 16:43:59;;;;;;;2.70;1.75;;;22.90;99.90;;;;;;6264580;27;89130;-66
2022/09/08 16:47:34;;;;;;;1.38;0.88;;;22.80;99.90;;;;;;6274126;27;89086;-66